Time;durP1;ratioP1;P1;durP2;ratioP2;P2;SDS_P1;SDS_P2;PMS_P1;PMS_P2;Temp;Humidity;BMP_temperature;BMP_pressure;BME280_temperature;BME280_humidity;BME280_pressure;Samples;Min_cycle;Max_cycle;Signal;HPM_P1;HPM_P2
2022/03/05 00:00:46;;;;;;;12.60;7.70;;;;;;;-2.04;81.02;98417.75;5114380;28;20211;-66
2022/03/05 00:03:13;;;;;;;11.50;7.60;;;;;;;-2.05;81.35;98410.84;5114187;28;20249;-66
2022/03/05 00:05:42;;;;;;;13.87;8.40;;;;;;;-2.09;81.71;98414.41;5114062;28;20210;-66
2022/03/05 00:08:09;;;;;;;11.83;7.90;;;;;;;-2.16;82.47;98412.75;5113768;28;20215;-66
2022/03/05 00:10:36;;;;;;;16.83;8.47;;;;;;;-2.29;82.77;98411.22;5113856;28;20238;-66
2022/03/05 00:13:02;;;;;;;14.93;8.00;;;;;;;-2.35;82.57;98419.94;5113909;28;20214;-66
2022/03/05 00:15:29;;;;;;;11.53;8.17;;;;;;;-2.36;82.98;98409.59;5114288;28;20217;-66
2022/03/05 00:17:56;;;;;;;14.93;9.10;;;;;;;-2.33;83.04;98409.56;5114141;28;20587;-66
2022/03/05 00:20:23;;;;;;;12.47;8.30;;;;;;;-2.33;83.34;98419.94;5112381;28;20218;-66
2022/03/05 00:22:52;;;;;;;14.27;8.00;;;;;;;-2.31;83.61;98418.16;5113889;28;20244;-66
2022/03/05 00:25:19;;;;;;;11.90;7.80;;;;;;;-2.29;83.98;98411.22;5096048;28;20219;-67
2022/03/05 00:27:45;;;;;;;14.23;8.70;;;;;;;-2.28;84.26;98418.13;5104287;28;20214;-67
2022/03/05 00:30:12;;;;;;;12.00;8.03;;;;;;;-2.33;84.35;98419.94;5113880;28;20218;-67
2022/03/05 00:32:39;;;;;;;12.50;7.90;;;;;;;-2.33;84.36;98419.94;5113824;28;20214;-66
2022/03/05 00:35:07;;;;;;;15.50;8.37;;;;;;;-2.37;84.24;98413.06;5113550;28;20210;-66
2022/03/05 00:37:33;;;;;;;16.20;9.10;;;;;;;-2.33;83.84;98414.75;5113802;28;20218;-66
2022/03/05 00:40:01;;;;;;;12.27;8.50;;;;;;;-2.26;83.86;98408.59;5113828;28;20220;-66
2022/03/05 00:42:28;;;;;;;13.53;8.27;;;;;;;-2.19;83.26;98418.00;5113319;28;20710;-66
2022/03/05 00:44:54;;;;;;;12.20;7.73;;;;;;;-2.16;83.48;98423.09;5112732;28;20225;-67
2022/03/05 00:47:20;;;;;;;12.23;7.93;;;;;;;-2.15;83.21;98424.84;5113236;28;20221;-66
2022/03/05 00:49:47;;;;;;;12.90;8.40;;;;;;;-2.22;83.25;98412.84;5113575;28;20229;-66
2022/03/05 00:52:14;;;;;;;14.17;8.80;;;;;;;-2.25;83.82;98423.25;5113584;28;20214;-66
2022/03/05 00:54:40;;;;;;;13.83;8.10;;;;;;;-2.29;83.72;98422.44;5113357;28;20579;-66
2022/03/05 00:57:08;;;;;;;13.33;8.17;;;;;;;-2.24;83.89;98419.78;5113417;28;20213;-66
2022/03/05 00:59:35;;;;;;;13.90;8.87;;;;;;;-2.27;84.05;98414.66;5113175;28;20207;-66
2022/03/05 01:02:01;;;;;;;13.67;8.60;;;;;;;-2.24;84.34;98409.44;5113185;28;20624;-66
2022/03/05 01:04:28;;;;;;;12.07;7.77;;;;;;;-2.24;84.08;98417.19;5113183;28;20217;-66
2022/03/05 01:06:54;;;;;;;13.57;7.80;;;;;;;-2.28;84.39;98423.31;5113372;28;20623;-66
2022/03/05 01:09:20;;;;;;;12.63;8.00;;;;;;;-2.28;84.46;98407.78;5112986;28;20719;-66
2022/03/05 01:11:48;;;;;;;12.60;7.57;;;;;;;-2.36;84.92;98419.97;5111692;28;20589;-66
2022/03/05 01:14:15;;;;;;;14.07;8.03;;;;;;;-2.41;85.27;98406.22;5113483;28;20214;-66
2022/03/05 01:16:42;;;;;;;12.70;7.87;;;;;;;-2.50;85.47;98403.78;5113462;28;20210;-66
2022/03/05 01:19:08;;;;;;;12.70;7.60;;;;;;;-2.51;86.22;98405.50;5115057;28;20671;-66
2022/03/05 01:21:36;;;;;;;12.33;7.70;;;;;;;-2.46;85.49;98408.88;5117571;28;20248;-66
2022/03/05 01:24:03;;;;;;;13.07;8.07;;;;;;;-2.53;85.82;98402.06;5117143;28;20242;-66
2022/03/05 01:26:30;;;;;;;12.17;7.43;;;;;;;-2.57;86.02;98396.97;5117238;28;20255;-66
2022/03/05 01:28:57;;;;;;;12.20;7.83;;;;;;;-2.54;85.73;98399.50;5117477;28;20214;-66
2022/03/05 01:31:25;;;;;;;14.13;8.27;;;;;;;-2.59;85.89;98404.75;5103085;28;20218;-66
2022/03/05 01:33:51;;;;;;;11.37;7.00;;;;;;;-2.68;86.15;98398.84;5117288;28;20213;-66
2022/03/05 01:36:18;;;;;;;14.10;7.43;;;;;;;-2.82;86.80;98409.34;5117265;28;20210;-66
2022/03/05 01:38:44;;;;;;;12.00;7.60;;;;;;;-2.89;87.55;98399.13;5115608;28;20217;-66
2022/03/05 01:41:11;;;;;;;12.20;7.53;;;;;;;-2.94;87.38;98398.31;5103049;28;20214;-67
2022/03/05 01:43:37;;;;;;;12.30;8.00;;;;;;;-2.99;87.59;98400.94;5116780;28;20234;-67
2022/03/05 01:46:04;;;;;;;14.40;7.97;;;;;;;-3.03;87.65;98395.84;5117045;28;20210;-66
2022/03/05 01:48:31;;;;;;;12.40;8.60;;;;;;;-3.07;88.17;98396.75;5116997;28;20221;-66
2022/03/05 01:50:58;;;;;;;12.37;7.63;;;;;;;-3.17;89.38;98395.16;5116931;28;20218;-66
2022/03/05 01:53:25;;;;;;;13.00;8.13;;;;;;;-3.27;90.11;98403.84;5116878;28;20225;-66
2022/03/05 01:55:51;;;;;;;13.50;8.30;;;;;;;-3.29;90.70;98410.78;5116916;28;20209;-66
2022/03/05 01:58:18;;;;;;;15.77;9.50;;;;;;;-3.26;90.53;98402.97;5116208;28;20209;-66
2022/03/05 02:00:44;;;;;;;13.50;7.77;;;;;;;-3.25;90.28;98407.31;5106428;28;20683;-66
2022/03/05 02:03:11;;;;;;;13.17;8.53;;;;;;;-3.29;90.40;98400.44;5108205;28;20235;-66
2022/03/05 02:05:39;;;;;;;14.80;8.63;;;;;;;-3.33;90.93;98403.94;5111163;28;20210;-66
2022/03/05 02:08:06;;;;;;;13.83;8.20;;;;;;;-3.32;90.91;98403.03;5111006;28;20218;-66
2022/03/05 02:10:33;;;;;;;13.37;8.17;;;;;;;-3.35;91.32;98396.22;5104984;28;20639;-66
2022/03/05 02:12:59;;;;;;;14.40;9.33;;;;;;;-3.35;91.12;98400.50;5115197;28;20217;-66
2022/03/05 02:15:25;;;;;;;14.17;8.90;;;;;;;-3.41;90.90;98396.28;5116820;28;20210;-66
2022/03/05 02:17:52;;;;;;;11.73;7.63;;;;;;;-3.34;91.07;98397.03;5116840;28;20218;-66
2022/03/05 02:20:18;;;;;;;15.27;8.67;;;;;;;-3.23;90.38;98400.38;5116459;28;20221;-67
2022/03/05 02:22:46;;;;;;;13.60;7.97;;;;;;;-3.23;90.19;98408.13;5116187;28;20238;-67
2022/03/05 02:25:13;;;;;;;15.67;8.77;;;;;;;-3.21;89.51;98403.78;5115937;28;20214;-67
2022/03/05 02:27:41;;;;;;;12.97;8.07;;;;;;;-3.35;89.68;98408.25;5116114;28;20221;-66
2022/03/05 02:30:09;;;;;;;13.37;8.20;;;;;;;-3.46;90.52;98407.50;5114206;28;20209;-66
2022/03/05 02:32:36;;;;;;;12.80;7.83;;;;;;;-3.53;91.49;98405.84;5116230;28;20214;-66
2022/03/05 02:35:02;;;;;;;13.00;8.63;;;;;;;-3.55;92.19;98403.28;5116103;28;20210;-66
2022/03/05 02:37:29;;;;;;;12.87;8.07;;;;;;;-3.51;92.29;98406.69;5116180;28;20214;-66
2022/03/05 02:39:57;;;;;;;12.37;7.63;;;;;;;-3.54;92.16;98414.50;5116086;28;20335;-66
2022/03/05 02:42:25;;;;;;;13.53;8.33;;;;;;;-3.53;92.11;98403.28;5115619;28;20241;-66
2022/03/05 02:44:51;;;;;;;16.40;8.30;;;;;;;-3.56;92.46;98411.06;5115859;28;20624;-65
2022/03/05 02:47:18;;;;;;;13.47;8.00;;;;;;;-3.51;92.69;98404.09;5115728;28;20243;-66
2022/03/05 02:49:45;;;;;;;13.70;7.70;;;;;;;-3.49;92.96;98402.38;5116067;28;20569;-66
2022/03/05 02:52:11;;;;;;;16.63;9.13;;;;;;;-3.54;93.25;98404.16;5115679;28;20679;-66
2022/03/05 02:54:38;;;;;;;12.13;8.27;;;;;;;-3.54;93.52;98397.25;5114541;28;20214;-66
2022/03/05 02:57:06;;;;;;;13.70;8.53;;;;;;;-3.48;93.43;98409.25;5102973;28;20580;-67
2022/03/05 02:59:32;;;;;;;12.90;7.67;;;;;;;-3.58;93.69;98405.03;5115308;28;20212;-67
2022/03/05 03:01:59;;;;;;;14.83;8.90;;;;;;;-3.60;93.77;98402.47;5115263;28;20224;-67
2022/03/05 03:04:26;;;;;;;15.93;8.90;;;;;;;-3.70;93.89;98395.69;5115489;28;20242;-67
2022/03/05 03:06:52;;;;;;;14.90;8.60;;;;;;;-3.73;94.48;98395.72;5115446;28;20210;-67
2022/03/05 03:09:19;;;;;;;14.37;8.23;;;;;;;-3.80;95.34;98396.63;5115335;28;20241;-67
2022/03/05 03:11:45;;;;;;;14.93;8.57;;;;;;;-3.71;95.37;98406.03;5115480;28;20218;-67
2022/03/05 03:14:13;;;;;;;15.63;9.27;;;;;;;-3.59;95.51;98400.75;5115470;28;20214;-67
2022/03/05 03:16:39;;;;;;;14.87;8.47;;;;;;;-3.61;94.88;98402.50;5115001;28;20213;-67
2022/03/05 03:19:06;;;;;;;14.50;9.07;;;;;;;-3.70;95.59;98407.75;5114920;28;20677;-67
2022/03/05 03:21:32;;;;;;;13.83;8.20;;;;;;;-3.80;95.68;98416.47;5113225;28;20210;-66
2022/03/05 03:23:59;;;;;;;12.87;8.30;;;;;;;-3.86;96.77;98416.50;5114978;28;20233;-66
2022/03/05 03:26:25;;;;;;;13.63;9.17;;;;;;;-3.79;97.16;98407.84;5114921;28;20214;-66
2022/03/05 03:28:52;;;;;;;16.43;9.23;;;;;;;-3.78;97.80;98412.97;5114793;28;20671;-66
2022/03/05 03:31:20;;;;;;;14.23;8.30;;;;;;;-3.80;96.89;98408.72;5115210;28;20214;-66
2022/03/05 03:33:47;;;;;;;13.30;8.03;;;;;;;-3.82;97.67;98411.31;5115092;28;20214;-66
2022/03/05 03:36:13;;;;;;;12.47;7.90;;;;;;;-3.82;97.81;98411.31;5115007;28;20577;-66
2022/03/05 03:38:40;;;;;;;14.10;8.87;;;;;;;-3.88;99.23;98413.06;5114949;28;20210;-66
2022/03/05 03:41:07;;;;;;;17.07;8.40;;;;;;;-3.78;99.68;98400.06;5114334;28;20279;-66
2022/03/05 03:43:34;;;;;;;13.77;8.40;;;;;;;-3.76;99.60;98407.78;5114290;28;20242;-66
2022/03/05 03:46:00;;;;;;;16.93;9.57;;;;;;;-3.60;100.00;98407.63;5114745;28;20209;-66
2022/03/05 03:48:28;;;;;;;14.70;8.70;;;;;;;-3.28;98.74;98402.16;5112986;28;20222;-66
2022/03/05 03:50:55;;;;;;;14.73;9.07;;;;;;;-3.18;98.32;98408.94;5114785;28;20213;-66
2022/03/05 03:53:21;;;;;;;12.50;8.10;;;;;;;-3.21;98.52;98408.97;5114549;28;20225;-66
2022/03/05 03:55:47;;;;;;;14.17;8.70;;;;;;;-3.24;98.77;98409.84;5114598;28;20206;-66
2022/03/05 03:58:14;;;;;;;14.63;9.10;;;;;;;-3.10;98.49;98417.47;5114680;28;20237;-66
2022/03/05 04:00:40;;;;;;;13.37;8.50;;;;;;;-3.07;98.22;98412.28;5114605;28;20776;-66
2022/03/05 04:03:07;;;;;;;14.90;7.73;;;;;;;-2.97;97.59;98412.13;5114067;28;20238;-66
2022/03/05 04:05:35;;;;;;;15.47;8.60;;;;;;;-2.88;97.07;98409.44;5114320;28;20298;-67
2022/03/05 04:10:45;;;;;;;14.73;8.57;;;;;;;-2.80;96.36;98412.81;5103397;28;20287;-66
2022/03/05 04:13:12;;;;;;;15.10;8.83;;;;;;;-2.86;95.82;98412.00;5112474;28;20416;-66
2022/03/05 04:15:39;;;;;;;14.83;8.40;;;;;;;-2.94;95.85;98413.84;5113809;28;20689;-66
2022/03/05 04:18:06;;;;;;;13.53;7.47;;;;;;;-2.97;95.55;98413.84;5114175;28;20566;-66
2022/03/05 04:20:32;;;;;;;15.03;8.97;;;;;;;-2.97;95.38;98413.84;5114222;28;20224;-67
2022/03/05 04:23:00;;;;;;;18.80;8.80;;;;;;;-3.01;95.50;98412.19;5111666;28;20242;-67
2022/03/05 04:25:26;;;;;;;13.97;9.03;;;;;;;-2.98;95.20;98410.44;5113866;28;20777;-66
2022/03/05 04:27:53;;;;;;;13.37;8.20;;;;;;;-2.89;94.67;98420.66;5114010;28;20233;-67
2022/03/05 04:30:19;;;;;;;14.27;8.33;;;;;;;-2.97;94.34;98419.03;5114005;28;20210;-67
2022/03/05 04:32:46;;;;;;;13.23;8.03;;;;;;;-3.01;94.66;98417.38;5113972;28;20214;-66
2022/03/05 04:35:13;;;;;;;15.03;9.00;;;;;;;-3.12;94.61;98419.22;5114015;28;20217;-66
2022/03/05 04:37:40;;;;;;;15.03;8.80;;;;;;;-3.19;95.18;98413.25;5113949;28;20214;-66
2022/03/05 04:40:09;;;;;;;13.90;8.50;;;;;;;-3.12;95.32;98419.22;5111950;28;20206;-66
2022/03/05 04:42:36;;;;;;;13.70;8.33;;;;;;;-3.09;95.65;98425.22;5113594;28;20222;-66
2022/03/05 04:45:06;;;;;;;13.87;8.53;;;;;;;-3.16;96.02;98422.69;5113736;28;20601;-66
2022/03/05 04:47:33;;;;;;;14.77;8.93;;;;;;;-3.09;95.80;98426.91;5113891;28;20609;-66
2022/03/05 04:49:59;;;;;;;13.90;9.23;;;;;;;-3.06;95.27;98429.50;5113376;28;20221;-66
2022/03/05 04:52:26;;;;;;;12.87;8.43;;;;;;;-3.05;95.03;98431.19;5113467;28;20312;-66
2022/03/05 04:54:52;;;;;;;13.33;8.60;;;;;;;-3.01;95.15;98432.88;5113719;28;20582;-66
2022/03/05 04:57:20;;;;;;;16.20;9.10;;;;;;;-3.18;95.65;98434.78;5113380;28;20218;-66
2022/03/05 04:59:47;;;;;;;15.07;8.63;;;;;;;-3.36;96.87;98432.41;5113554;28;20209;-66
2022/03/05 05:02:13;;;;;;;13.93;8.90;;;;;;;-3.35;96.93;98434.09;5113410;28;20214;-66
2022/03/05 05:04:40;;;;;;;14.20;8.87;;;;;;;-3.39;97.21;98429.81;5113148;28;20726;-66
2022/03/05 05:07:06;;;;;;;15.53;9.00;;;;;;;-3.31;97.03;98439.22;5111903;28;20207;-66
2022/03/05 05:09:33;;;;;;;12.63;8.17;;;;;;;-3.21;96.53;98439.97;5113009;28;20245;-66
2022/03/05 05:11:59;;;;;;;15.03;8.47;;;;;;;-3.22;96.96;98439.13;5113305;28;20217;-66
2022/03/05 05:14:27;;;;;;;14.53;8.67;;;;;;;-3.13;96.58;98438.19;5113461;28;20210;-66
2022/03/05 05:16:53;;;;;;;14.10;8.40;;;;;;;-3.10;96.41;98433.84;5112989;28;20289;-66
2022/03/05 05:19:27;;;;;;;16.63;9.57;;;;;;;-2.99;96.36;98431.97;5113445;28;20205;-66
2022/03/05 05:21:54;;;;;;;15.60;9.17;;;;;;;-3.02;96.69;98441.50;5113096;28;20214;-66
2022/03/05 05:24:21;;;;;;;15.90;8.67;;;;;;;-3.00;96.93;98440.59;5113217;28;20233;-66
2022/03/05 05:26:48;;;;;;;13.73;8.40;;;;;;;-2.95;96.51;98443.16;5104311;28;20698;-66
2022/03/05 05:29:14;;;;;;;17.30;10.07;;;;;;;-2.89;96.20;98443.94;5113259;28;20217;-66
2022/03/05 05:31:42;;;;;;;15.03;9.00;;;;;;;-2.91;96.17;98449.97;5111558;28;20218;-66
2022/03/05 05:34:08;;;;;;;13.53;8.67;;;;;;;-2.95;96.29;98446.56;5113439;28;20214;-66
2022/03/05 05:36:38;;;;;;;13.07;8.20;;;;;;;-2.87;95.91;98451.69;5112981;28;20217;-66
2022/03/05 05:39:05;;;;;;;14.70;8.77;;;;;;;-2.90;95.89;98456.88;5113257;28;20275;-66
2022/03/05 05:41:31;;;;;;;15.20;8.10;;;;;;;-2.84;95.44;98462.84;5112800;28;20689;-66
2022/03/05 05:43:58;;;;;;;15.13;8.63;;;;;;;-2.84;95.55;98467.13;5112982;28;20245;-66
2022/03/05 05:46:24;;;;;;;15.80;8.63;;;;;;;-2.88;95.80;98470.66;5112748;28;20714;-66
2022/03/05 05:48:52;;;;;;;14.07;8.63;;;;;;;-2.93;95.60;98462.09;5112767;28;20211;-66
2022/03/05 05:51:19;;;;;;;16.33;8.90;;;;;;;-2.99;95.70;98477.66;5113027;28;20242;-66
2022/03/05 05:53:45;;;;;;;14.43;8.30;;;;;;;-2.98;96.04;98477.66;5113156;28;20221;-66
2022/03/05 05:56:11;;;;;;;15.80;7.87;;;;;;;-2.95;96.46;98477.59;5112887;28;20214;-66
2022/03/05 05:58:38;;;;;;;13.80;8.57;;;;;;;-2.92;96.22;98477.59;5111318;28;20221;-66
2022/03/05 06:01:04;;;;;;;14.53;8.60;;;;;;;-2.87;96.20;98482.72;5112633;28;20221;-66
2022/03/05 06:03:31;;;;;;;13.93;8.60;;;;;;;-2.95;96.64;98476.78;5112526;28;20230;-66
2022/03/05 06:06:00;;;;;;;13.13;8.43;;;;;;;-2.83;96.38;98485.22;5115715;28;20695;-66
2022/03/05 06:08:27;;;;;;;13.10;8.67;;;;;;;-2.87;95.94;98482.72;5116735;28;20218;-66
2022/03/05 06:10:54;;;;;;;14.70;9.07;;;;;;;-2.94;96.56;98487.06;5116162;28;20238;-66
2022/03/05 06:13:21;;;;;;;15.97;8.67;;;;;;;-3.02;96.82;98485.44;5116378;28;20218;-66
2022/03/05 06:15:47;;;;;;;14.87;9.13;;;;;;;-3.04;97.34;98489.78;5116209;28;20307;-66
2022/03/05 06:18:14;;;;;;;14.87;8.73;;;;;;;-2.98;97.38;98489.72;5116385;28;20206;-66
2022/03/05 06:20:41;;;;;;;15.53;8.97;;;;;;;-2.92;97.03;98494.81;5116072;28;20210;-66
2022/03/05 06:23:08;;;;;;;17.60;8.73;;;;;;;-2.79;96.37;98496.41;5115430;28;20210;-67
2022/03/05 06:25:35;;;;;;;15.77;9.17;;;;;;;-2.75;96.40;98495.50;5115652;28;20241;-66
2022/03/05 06:28:02;;;;;;;14.33;9.47;;;;;;;-2.76;96.76;98504.13;5116380;28;20217;-66
2022/03/05 06:30:28;;;;;;;15.33;9.23;;;;;;;-2.82;97.16;98501.63;5115998;28;20210;-66
2022/03/05 06:32:55;;;;;;;18.20;9.50;;;;;;;-2.77;97.12;98497.22;5116276;28;20210;-66
2022/03/05 06:35:21;;;;;;;14.67;9.33;;;;;;;-2.72;97.43;98508.38;5115936;28;20210;-65
2022/03/05 06:37:48;;;;;;;14.67;8.37;;;;;;;-2.69;97.56;98508.38;5116247;28;20210;-66
2022/03/05 06:40:15;;;;;;;14.90;8.83;;;;;;;-2.50;96.60;98507.28;5109426;28;20214;-66
2022/03/05 06:42:44;;;;;;;16.03;8.33;;;;;;;-2.51;97.04;98508.16;5115639;28;20206;-66
2022/03/05 06:45:11;;;;;;;13.37;9.00;;;;;;;-2.41;96.19;98512.31;5115821;28;20253;-66
2022/03/05 06:47:38;;;;;;;16.67;10.23;;;;;;;-2.29;95.55;98525.97;5115755;28;20222;-66
2022/03/05 06:50:05;;;;;;;13.50;8.67;;;;;;;-2.22;94.69;98525.03;5114150;28;20214;-66
2022/03/05 06:52:32;;;;;;;15.80;9.43;;;;;;;-2.16;94.42;98531.84;5115828;28;20221;-66
2022/03/05 06:54:58;;;;;;;15.13;9.23;;;;;;;-2.03;93.50;98538.59;5115884;28;20213;-66
2022/03/05 06:57:27;;;;;;;14.50;9.40;;;;;;;-1.93;92.47;98524.63;5115827;28;20212;-66
2022/03/05 06:59:54;;;;;;;19.80;9.97;;;;;;;-1.84;92.26;98524.50;5115587;28;20282;-66
2022/03/05 07:02:21;;;;;;;15.00;10.10;;;;;;;-1.84;91.51;98525.34;5115640;28;20255;-66
2022/03/05 07:04:47;;;;;;;15.43;9.70;;;;;;;-1.81;92.49;98529.63;5115623;28;20244;-66
2022/03/05 07:07:14;;;;;;;15.33;9.37;;;;;;;-1.79;92.64;98530.50;5115286;28;20210;-66
2022/03/05 07:09:40;;;;;;;14.90;9.20;;;;;;;-1.73;92.22;98533.00;5115361;28;20238;-66
2022/03/05 07:12:09;;;;;;;17.33;9.47;;;;;;;-1.63;93.03;98535.41;5115534;28;20210;-65
2022/03/05 07:14:37;;;;;;;15.40;9.53;;;;;;;-1.55;92.66;98533.56;5115443;28;20229;-66
2022/03/05 07:17:04;;;;;;;15.97;9.57;;;;;;;-1.49;92.90;98533.47;5112443;28;20213;-66
2022/03/05 07:19:30;;;;;;;18.67;10.63;;;;;;;-1.35;92.18;98530.66;5115301;28;20206;-66
2022/03/05 07:21:57;;;;;;;17.27;9.67;;;;;;;-1.29;91.83;98540.94;5111415;28;20222;-66
2022/03/05 07:24:23;;;;;;;18.47;10.27;;;;;;;-1.17;90.81;98540.72;5095715;28;20257;-66
2022/03/05 07:26:50;;;;;;;15.20;9.50;;;;;;;-1.13;90.97;98532.88;5095730;28;20208;-65
2022/03/05 07:29:16;;;;;;;15.07;9.20;;;;;;;-1.06;90.07;98534.47;5095554;28;20216;-66
2022/03/05 07:31:45;;;;;;;15.50;9.23;;;;;;;-0.97;89.67;98528.28;5097455;28;20212;-66
2022/03/05 07:34:11;;;;;;;15.80;10.00;;;;;;;-0.88;89.12;98535.88;5095563;28;20208;-66
2022/03/05 07:36:39;;;;;;;13.80;9.27;;;;;;;-0.77;88.63;98539.16;5095811;28;20212;-66
2022/03/05 07:39:07;;;;;;;16.83;9.83;;;;;;;-0.69;88.12;98539.88;5095406;28;20220;-66
2022/03/05 07:41:34;;;;;;;18.03;10.47;;;;;;;-0.58;88.82;98541.38;5095830;28;20217;-66
2022/03/05 07:44:00;;;;;;;15.47;8.97;;;;;;;-0.48;88.19;98534.28;5095080;28;20218;-66
2022/03/05 07:46:27;;;;;;;18.60;10.03;;;;;;;-0.32;87.48;98530.50;5095095;28;20210;-66
2022/03/05 07:48:54;;;;;;;13.43;9.70;;;;;;;-0.25;86.86;98532.91;5095279;28;20658;-66
2022/03/05 07:51:21;;;;;;;16.57;10.17;;;;;;;-0.13;86.68;98530.94;5097435;28;20217;-66
2022/03/05 07:53:47;;;;;;;18.20;11.13;;;;;;;-0.02;86.63;98535.91;5095100;28;20473;-66
2022/03/05 07:56:14;;;;;;;15.30;9.93;;;;;;;0.07;85.67;98533.97;5103957;28;20217;-66
2022/03/05 07:58:40;;;;;;;18.20;10.90;;;;;;;0.18;85.37;98534.59;5113003;28;20669;-66
2022/03/05 08:01:07;;;;;;;20.67;11.03;;;;;;;0.25;85.07;98533.56;5113029;28;20212;-66
2022/03/05 08:03:33;;;;;;;19.13;10.97;;;;;;;0.41;83.76;98536.66;5113021;28;20215;-66
2022/03/05 08:06:02;;;;;;;17.57;11.23;;;;;;;0.48;83.72;98533.91;5112852;28;20244;-66
2022/03/05 08:08:28;;;;;;;16.73;11.07;;;;;;;0.66;82.84;98533.47;5111102;28;20213;-66
2022/03/05 08:10:55;;;;;;;20.40;11.23;;;;;;;0.80;82.92;98536.59;5112469;28;20602;-66
2022/03/05 08:13:22;;;;;;;15.83;10.70;;;;;;;0.86;80.91;98536.44;5098947;28;20297;-66
2022/03/05 08:15:48;;;;;;;16.97;10.97;;;;;;;0.94;81.33;98544.06;5112619;28;20221;-66
2022/03/05 08:18:15;;;;;;;21.03;11.00;;;;;;;0.96;79.90;98543.13;5112469;28;20220;-66
2022/03/05 08:20:42;;;;;;;20.57;11.33;;;;;;;1.07;80.99;98548.06;5112433;28;20693;-66
2022/03/05 08:23:10;;;;;;;17.90;11.33;;;;;;;1.12;79.24;98546.19;5112709;28;20224;-66
2022/03/05 08:25:36;;;;;;;18.70;11.17;;;;;;;1.24;80.09;98544.13;5112678;28;20233;-66
2022/03/05 08:28:03;;;;;;;18.17;11.50;;;;;;;1.38;80.54;98546.38;5112370;28;20216;-66
2022/03/05 08:30:29;;;;;;;20.87;11.60;;;;;;;1.47;79.74;98538.34;5112950;28;20218;-66
2022/03/05 08:32:56;;;;;;;19.97;12.00;;;;;;;1.56;78.72;98546.75;5112425;28;20223;-66
2022/03/05 08:35:23;;;;;;;17.33;12.03;;;;;;;1.67;77.74;98547.28;5110886;28;20228;-66
2022/03/05 08:37:50;;;;;;;18.30;12.43;;;;;;;1.74;77.72;98545.38;5112482;28;20208;-66
2022/03/05 08:40:19;;;;;;;19.57;12.77;;;;;;;1.72;77.36;98548.03;5112210;28;20226;-66
2022/03/05 08:42:48;;;;;;;18.90;11.77;;;;;;;1.82;77.10;98548.63;5112510;28;20212;-66
2022/03/05 08:45:15;;;;;;;16.47;10.87;;;;;;;1.89;76.76;98551.00;5112096;28;20775;-66
2022/03/05 08:47:44;;;;;;;18.03;11.57;;;;;;;2.07;76.55;98545.28;5112390;28;20210;-66
2022/03/05 08:50:10;;;;;;;18.23;11.50;;;;;;;2.21;75.14;98537.91;5112294;28;20252;-66
2022/03/05 08:52:37;;;;;;;18.30;11.80;;;;;;;2.39;76.18;98541.72;5112019;28;20221;-65
2022/03/05 08:55:05;;;;;;;17.00;11.30;;;;;;;2.48;73.79;98541.44;5112272;28;20225;-65
2022/03/05 08:57:33;;;;;;;18.97;11.50;;;;;;;2.57;73.37;98538.56;5112297;28;20265;-65
2022/03/05 08:59:59;;;;;;;20.87;12.20;;;;;;;2.61;73.12;98532.31;5111732;28;20221;-64
2022/03/05 09:02:26;;;;;;;20.83;12.23;;;;;;;2.69;72.12;98535.56;5111326;28;20220;-65
2022/03/05 09:04:53;;;;;;;17.97;12.03;;;;;;;2.77;71.57;98529.19;5111857;28;20249;-65
2022/03/05 09:07:19;;;;;;;17.80;11.40;;;;;;;2.90;70.21;98537.47;5112098;28;20237;-65
2022/03/05 09:09:46;;;;;;;16.37;11.20;;;;;;;3.04;71.22;98530.91;5109079;28;20245;-65
2022/03/05 09:12:12;;;;;;;21.03;11.90;;;;;;;3.10;71.65;98527.22;5111929;28;20228;-65
2022/03/05 09:14:40;;;;;;;18.50;11.30;;;;;;;3.21;70.14;98530.31;5111992;28;20214;-65
2022/03/05 09:17:06;;;;;;;16.07;11.30;;;;;;;3.35;71.36;98523.72;5111628;28;20675;-65
2022/03/05 09:19:33;;;;;;;16.00;11.23;;;;;;;3.57;67.31;98516.84;5111653;28;20261;-65
2022/03/05 09:21:59;;;;;;;15.87;10.33;;;;;;;3.75;67.57;98508.38;5111900;28;20290;-65
2022/03/05 09:24:26;;;;;;;16.53;11.37;;;;;;;3.79;68.38;98506.50;5111908;28;20225;-65
2022/03/05 09:26:52;;;;;;;17.23;11.13;;;;;;;3.91;65.66;98513.88;5110382;28;20590;-65
2022/03/05 09:29:19;;;;;;;18.93;11.50;;;;;;;4.03;66.15;98506.41;5111788;28;20694;-66
2022/03/05 09:31:47;;;;;;;16.40;10.40;;;;;;;4.30;66.89;98500.16;5111953;28;20468;-65
2022/03/05 09:34:13;;;;;;;14.30;9.37;;;;;;;4.45;64.73;98507.41;5112075;28;20214;-65
2022/03/05 09:36:40;;;;;;;15.30;9.73;;;;;;;4.54;64.11;98508.81;5111985;28;20221;-66
2022/03/05 09:39:06;;;;;;;17.70;10.53;;;;;;;4.62;63.33;98506.72;5111998;28;20218;-65
2022/03/05 09:41:33;;;;;;;14.90;9.60;;;;;;;4.73;59.93;98513.25;5115647;28;20241;-66
2022/03/05 09:44:00;;;;;;;15.27;9.73;;;;;;;4.79;60.07;98507.78;5115843;28;20262;-65
2022/03/05 09:46:27;;;;;;;15.47;10.63;;;;;;;4.83;59.48;98508.50;5115448;28;20704;-65
2022/03/05 09:48:55;;;;;;;13.67;9.33;;;;;;;4.85;59.93;98502.28;5115808;28;20210;-66
2022/03/05 09:51:23;;;;;;;13.30;9.27;;;;;;;4.96;59.39;98505.31;5115477;28;20222;-66
2022/03/05 09:53:53;;;;;;;13.50;9.03;;;;;;;5.02;59.86;98499.81;5114015;28;20218;-66
2022/03/05 09:56:19;;;;;;;14.30;9.40;;;;;;;5.15;56.50;98490.56;5115865;28;20243;-66
2022/03/05 09:58:47;;;;;;;15.20;9.90;;;;;;;5.14;57.33;98498.47;5115297;28;20689;-65
2022/03/05 10:01:14;;;;;;;13.97;9.53;;;;;;;5.18;58.95;98500.88;5113193;28;20218;-66
2022/03/05 10:03:44;;;;;;;12.70;8.40;;;;;;;5.24;55.79;98489.28;5115363;28;20219;-66
2022/03/05 10:06:17;;;;;;;13.70;9.13;;;;;;;5.31;55.42;98496.84;5114885;28;20689;-65
2022/03/05 10:08:43;;;;;;;13.77;9.10;;;;;;;5.41;55.38;98499.91;5115308;28;20215;-65
2022/03/05 10:11:12;;;;;;;11.93;8.53;;;;;;;5.55;53.47;98501.03;5114939;28;20253;-65
2022/03/05 10:13:39;;;;;;;12.40;8.20;;;;;;;5.63;54.50;98495.44;5115332;28;20219;-65
2022/03/05 10:16:21;;;;;;;12.33;7.87;;;;;;;5.67;52.93;98494.41;5115465;28;20247;-66
2022/03/05 10:18:48;;;;;;;10.67;7.37;;;;;;;5.82;53.12;98493.75;5114936;28;20270;-65
2022/03/05 10:21:16;;;;;;;11.93;8.60;;;;;;;5.80;52.52;98488.56;5113504;28;20215;-66
2022/03/05 10:23:47;;;;;;;11.67;8.53;;;;;;;5.77;52.67;98496.56;5112767;28;20299;-66
2022/03/05 10:26:15;;;;;;;13.47;9.47;;;;;;;5.81;52.39;98487.63;5112404;28;20615;-66
2022/03/05 10:28:42;;;;;;;13.23;8.53;;;;;;;5.77;51.69;98490.44;5112520;28;20307;-66
2022/03/05 10:31:10;;;;;;;11.67;8.73;;;;;;;5.83;52.77;98488.44;5115002;28;20210;-66
2022/03/05 10:33:40;;;;;;;13.20;8.00;;;;;;;6.07;51.73;98492.59;5114806;28;20214;-66
2022/03/05 10:36:08;;;;;;;10.73;7.63;;;;;;;6.21;49.06;98484.91;5114797;28;20214;-66
2022/03/05 10:38:48;;;;;;;12.23;8.30;;;;;;;6.32;50.25;98490.53;5114732;28;20219;-66
2022/03/05 10:41:17;;;;;;;9.63;7.40;;;;;;;6.52;49.55;98477.31;5114681;28;20216;-66
2022/03/05 10:43:44;;;;;;;12.43;7.50;;;;;;;6.76;49.76;98484.00;5114788;28;20212;-66
2022/03/05 10:46:10;;;;;;;8.67;6.53;;;;;;;6.77;47.32;98480.47;5112553;28;20713;-66
2022/03/05 10:48:40;;;;;;;10.20;6.37;;;;;;;6.75;45.82;98477.06;5114469;28;20209;-65
2022/03/05 10:51:12;;;;;;;8.17;6.37;;;;;;;6.66;46.39;98468.78;5114233;28;20215;-65
2022/03/05 10:53:42;;;;;;;9.30;6.70;;;;;;;6.66;46.56;98469.63;5114728;28;20209;-65
2022/03/05 10:56:28;;;;;;;8.27;6.30;;;;;;;6.72;47.61;98469.31;5114370;28;20216;-65
2022/03/05 10:59:04;;;;;;;9.20;6.77;;;;;;;6.70;46.29;98460.66;5114405;28;20243;-65
2022/03/05 11:01:31;;;;;;;8.73;5.97;;;;;;;6.98;46.82;98465.41;5114023;28;20693;-65
2022/03/05 11:03:59;;;;;;;8.97;6.03;;;;;;;7.17;45.90;98464.44;5114176;28;20220;-66
2022/03/05 11:06:27;;;;;;;8.10;6.00;;;;;;;7.14;43.76;98463.75;5100132;28;20241;-65
2022/03/05 11:08:54;;;;;;;8.87;6.10;;;;;;;7.06;43.41;98464.13;5114219;28;20299;-66
2022/03/05 11:11:21;;;;;;;8.50;5.83;;;;;;;7.08;45.02;98470.13;5113859;28;20713;-65
2022/03/05 11:13:50;;;;;;;10.00;6.83;;;;;;;7.28;46.00;98458.63;5112396;28;20216;-65
2022/03/05 11:16:16;;;;;;;10.20;7.17;;;;;;;7.43;45.20;98453.44;5093471;28;20220;-65
2022/03/05 11:18:43;;;;;;;9.93;7.13;;;;;;;7.40;43.94;98458.84;5108958;28;20220;-66
2022/03/05 11:21:10;;;;;;;12.97;7.40;;;;;;;7.49;44.94;98459.25;5110482;28;20581;-65
2022/03/05 11:23:40;;;;;;;10.03;6.77;;;;;;;7.51;43.80;98451.25;5110014;28;20232;-66
2022/03/05 11:26:08;;;;;;;9.43;6.77;;;;;;;7.61;43.63;98452.47;5102080;28;20276;-67
2022/03/05 11:28:35;;;;;;;8.07;6.33;;;;;;;7.50;44.29;98460.94;5111643;28;20303;-66